createdAt,value
2019-05-21T00:00:39.295Z,10.90
2019-05-21T00:03:05.361Z,10.90
2019-05-21T00:05:31.409Z,10.90
2019-05-21T00:07:57.451Z,10.80
2019-05-21T00:10:23.513Z,10.90
2019-05-21T00:12:49.572Z,11.00
2019-05-21T00:15:15.834Z,11.30
2019-05-21T00:17:41.973Z,11.40
2019-05-21T00:20:08.608Z,11.40
2019-05-21T00:22:35.072Z,11.30
2019-05-21T00:25:02.312Z,11.20
2019-05-21T00:27:28.512Z,11.20
2019-05-21T00:30:32.410Z,11.30
2019-05-21T00:33:35.982Z,11.10
2019-05-21T00:36:40.622Z,11.10
2019-05-21T00:39:44.436Z,11.00
2019-05-21T00:42:14.592Z,11.00
2019-05-21T00:44:41.796Z,10.90
2019-05-21T00:47:10.141Z,11.10
2019-05-21T00:49:36.604Z,11.10
2019-05-21T00:52:09.027Z,11.10
2019-05-21T00:54:31.995Z,11.10
2019-05-21T00:56:58.035Z,11.10
2019-05-21T00:59:24.205Z,11.10
2019-05-21T01:01:50.460Z,11.20
2019-05-21T01:04:16.529Z,11.30
2019-05-21T01:06:42.674Z,11.20
2019-05-21T01:09:09.013Z,11.20
2019-05-21T01:11:35.135Z,11.10
2019-05-21T01:14:01.199Z,11.10
2019-05-21T01:16:27.249Z,11.00
2019-05-21T01:18:53.282Z,11.10
2019-05-21T01:21:50.647Z,11.10
2019-05-21T01:24:16.893Z,11.10
2019-05-21T01:27:25.012Z,11.00
2019-05-21T01:29:51.081Z,11.00
2019-05-21T01:32:17.136Z,11.00
2019-05-21T01:34:43.186Z,11.00
2019-05-21T01:37:09.235Z,10.90
2019-05-21T01:39:35.275Z,11.00
2019-05-21T01:42:01.324Z,10.90
2019-05-21T01:44:27.399Z,10.90
2019-05-21T01:46:53.512Z,10.90
2019-05-21T01:49:19.576Z,10.90
2019-05-21T01:51:45.669Z,11.00
2019-05-21T01:54:11.761Z,10.90
2019-05-21T01:56:37.844Z,10.90
2019-05-21T01:59:04.011Z,11.00
2019-05-21T02:01:30.200Z,10.90
2019-05-21T02:03:56.280Z,10.90
2019-05-21T02:06:23.289Z,10.80
2019-05-21T02:08:49.567Z,10.80
2019-05-21T02:11:15.651Z,10.80
2019-05-21T02:13:41.721Z,10.70
2019-05-21T02:16:07.807Z,10.70
2019-05-21T02:18:33.869Z,10.60
2019-05-21T02:20:59.951Z,10.60
2019-05-21T02:23:26.027Z,10.70
2019-05-21T02:25:52.298Z,10.60
2019-05-21T02:28:18.423Z,10.60
2019-05-21T02:30:44.509Z,10.60
2019-05-21T02:33:10.581Z,10.50
2019-05-21T02:35:52.910Z,10.50
2019-05-21T02:38:04.654Z,10.50
2019-05-21T02:40:30.840Z,10.50
2019-05-21T02:42:56.910Z,10.50
2019-05-21T02:45:23.193Z,10.40
2019-05-21T02:47:49.268Z,10.50
2019-05-21T02:50:15.661Z,10.50
2019-05-21T02:52:41.828Z,10.50
2019-05-21T02:55:08.396Z,10.50
2019-05-21T02:57:42.807Z,10.50
2019-05-21T03:00:16.115Z,10.40
2019-05-21T03:02:42.489Z,10.50
2019-05-21T03:05:08.753Z,10.50
2019-05-21T03:07:35.040Z,10.40
2019-05-21T03:10:01.322Z,10.40
2019-05-21T03:12:27.545Z,10.40
2019-05-21T03:14:53.709Z,10.40
2019-05-21T03:17:19.894Z,10.40
2019-05-21T03:19:46.071Z,10.40
2019-05-21T03:22:12.158Z,10.40
2019-05-21T03:24:38.324Z,10.40
2019-05-21T03:27:04.515Z,10.40
2019-05-21T03:29:30.593Z,10.30
2019-05-21T03:31:56.677Z,10.30
2019-05-21T03:34:22.752Z,10.30
2019-05-21T03:36:48.846Z,10.30
2019-05-21T03:39:19.118Z,10.20
2019-05-21T03:41:42.899Z,10.20
2019-05-21T03:44:09.076Z,10.20
2019-05-21T03:46:35.156Z,10.30
2019-05-21T03:49:01.233Z,10.20
2019-05-21T03:51:27.408Z,10.30
2019-05-21T03:53:53.474Z,10.20
2019-05-21T03:56:19.569Z,10.30
2019-05-21T03:58:45.638Z,10.20
2019-05-21T04:01:11.768Z,10.20
2019-05-21T04:03:37.844Z,10.10
2019-05-21T04:06:03.931Z,10.30
2019-05-21T04:08:30.049Z,10.20
2019-05-21T04:10:56.187Z,10.20
2019-05-21T04:13:22.396Z,10.20
2019-05-21T04:15:52.875Z,10.20
2019-05-21T04:18:27.168Z,10.20
2019-05-21T04:20:53.336Z,10.30
2019-05-21T04:23:19.490Z,10.30
2019-05-21T04:25:45.695Z,10.20
2019-05-21T04:28:11.867Z,10.30
2019-05-21T04:30:37.950Z,10.30
2019-05-21T04:33:04.146Z,10.10
2019-05-21T04:35:30.306Z,10.30
2019-05-21T04:37:56.379Z,10.20
2019-05-21T04:40:23.611Z,10.20
2019-05-21T04:42:49.681Z,10.20
2019-05-21T04:45:15.867Z,10.30
2019-05-21T04:47:42.035Z,10.20
2019-05-21T04:50:08.515Z,10.10
2019-05-21T04:52:34.777Z,10.20
2019-05-21T04:55:00.861Z,10.10
2019-05-21T04:57:26.931Z,10.10
2019-05-21T04:59:52.989Z,10.20
2019-05-21T05:02:19.081Z,10.10
2019-05-21T05:04:45.167Z,10.10
2019-05-21T05:07:26.761Z,10.10
2019-05-21T05:09:39.233Z,10.10
2019-05-21T05:12:05.312Z,10.00
2019-05-21T05:14:31.384Z,10.00
2019-05-21T05:16:57.478Z,10.10
2019-05-21T05:19:23.556Z,10.10
2019-05-21T05:21:49.615Z,11.20
2019-05-21T05:24:15.705Z,10.00
2019-05-21T05:26:41.763Z,10.00
2019-05-21T05:29:07.847Z,10.00
2019-05-21T05:31:33.915Z,10.00
2019-05-21T05:34:00.015Z,10.00
2019-05-21T05:36:26.071Z,10.00
2019-05-21T05:38:52.187Z,10.00
2019-05-21T05:41:18.328Z,10.00
2019-05-21T05:43:44.414Z,10.00
2019-05-21T05:46:10.482Z,9.90
2019-05-21T05:48:38.479Z,10.00
2019-05-21T05:51:06.595Z,10.00
2019-05-21T05:53:34.672Z,10.00
2019-05-21T05:56:01.838Z,9.90
2019-05-21T05:58:27.926Z,10.00
2019-05-21T06:00:54.088Z,9.90
2019-05-21T06:03:20.166Z,9.90
2019-05-21T06:05:46.243Z,9.80
2019-05-21T06:08:12.339Z,9.90
2019-05-21T06:10:40.167Z,9.90
2019-05-21T06:13:06.404Z,9.90
2019-05-21T06:15:32.473Z,10.00
2019-05-21T06:17:58.563Z,10.10
2019-05-21T06:20:24.943Z,10.10
2019-05-21T06:22:51.018Z,10.20
2019-05-21T06:25:17.677Z,10.10
2019-05-21T06:27:43.968Z,10.20
2019-05-21T06:30:10.855Z,10.20
2019-05-21T06:32:36.926Z,10.20
2019-05-21T06:35:04.704Z,10.20
2019-05-21T06:37:30.807Z,10.20
2019-05-21T06:39:56.963Z,10.20
2019-05-21T06:42:23.043Z,10.20
2019-05-21T06:44:49.232Z,10.20
2019-05-21T06:47:15.293Z,10.10
2019-05-21T06:49:41.381Z,10.10
2019-05-21T06:52:07.448Z,10.10
2019-05-21T06:54:33.524Z,10.00
2019-05-21T06:56:59.702Z,10.00
2019-05-21T06:59:25.788Z,10.00
2019-05-21T07:01:51.851Z,9.90
2019-05-21T07:04:17.937Z,9.90
2019-05-21T07:06:44.838Z,9.90
2019-05-21T07:09:11.186Z,9.90
2019-05-21T07:11:37.257Z,9.90
2019-05-21T07:14:03.564Z,9.90
2019-05-21T07:16:29.656Z,10.00
2019-05-21T07:18:55.742Z,9.90
2019-05-21T07:21:21.802Z,9.90
2019-05-21T07:23:47.894Z,9.90
2019-05-21T07:26:14.058Z,10.00
2019-05-21T07:28:40.193Z,10.10
2019-05-21T07:31:06.367Z,10.10
2019-05-21T07:33:32.627Z,10.00
2019-05-21T07:35:58.716Z,10.10
2019-05-21T07:38:24.804Z,10.00
2019-05-21T07:40:50.885Z,10.00
2019-05-21T07:43:17.067Z,10.00
2019-05-21T07:45:43.233Z,9.90
2019-05-21T07:48:09.314Z,9.90
2019-05-21T07:50:35.384Z,10.00
2019-05-21T07:53:01.448Z,9.80
2019-05-21T07:55:27.523Z,9.90
2019-05-21T07:57:53.596Z,9.90
2019-05-21T08:00:20.175Z,10.00
2019-05-21T08:02:46.251Z,10.10
2019-05-21T08:05:12.435Z,10.10
2019-05-21T08:07:38.702Z,10.00
2019-05-21T08:10:06.013Z,10.10
2019-05-21T08:12:39.102Z,10.10
2019-05-21T08:15:00.188Z,10.10
2019-05-21T08:17:26.261Z,10.00
2019-05-21T08:19:52.323Z,10.00
2019-05-21T08:22:18.409Z,10.00
2019-05-21T08:24:44.563Z,9.90
2019-05-21T08:27:10.851Z,9.80
2019-05-21T08:29:36.928Z,10.00
2019-05-21T08:32:03.010Z,10.10
2019-05-21T08:34:29.072Z,10.10
2019-05-21T08:36:55.140Z,10.10
2019-05-21T08:39:28.781Z,10.20
2019-05-21T08:41:49.199Z,10.30
2019-05-21T08:44:15.266Z,10.30
2019-05-21T08:46:41.348Z,10.40
2019-05-21T08:49:07.416Z,10.40
2019-05-21T08:51:33.500Z,10.40
2019-05-21T08:53:59.579Z,10.30
2019-05-21T08:56:25.665Z,10.40
2019-05-21T08:58:51.960Z,10.40
2019-05-21T09:01:18.035Z,10.50
2019-05-21T09:03:44.125Z,10.40
2019-05-21T09:06:10.304Z,10.30
2019-05-21T09:08:36.401Z,10.40
2019-05-21T09:11:02.566Z,10.40
2019-05-21T09:13:29.671Z,10.30
2019-05-21T09:15:55.943Z,10.50
2019-05-21T09:18:22.153Z,10.60
2019-05-21T09:20:48.300Z,10.50
2019-05-21T09:23:14.586Z,10.50
2019-05-21T09:25:40.659Z,10.50
2019-05-21T09:28:06.744Z,10.50
2019-05-21T09:30:33.013Z,10.50
2019-05-21T09:32:59.230Z,10.60
2019-05-21T09:35:25.286Z,10.60
2019-05-21T09:37:51.460Z,10.80
2019-05-21T09:40:18.505Z,10.70
2019-05-21T09:42:45.589Z,10.80
2019-05-21T09:45:12.323Z,10.80
2019-05-21T09:47:38.637Z,10.70
2019-05-21T09:50:06.258Z,10.80
2019-05-21T09:52:32.623Z,10.80
2019-05-21T09:54:58.719Z,10.90
2019-05-21T09:57:43.627Z,10.90
2019-05-21T10:00:33.329Z,11.00
2019-05-21T10:03:00.220Z,11.00
2019-05-21T10:05:26.309Z,11.10
2019-05-21T10:07:52.403Z,11.10
2019-05-21T10:10:18.492Z,11.10
2019-05-21T10:12:44.567Z,11.00
2019-05-21T10:15:11.062Z,10.90
2019-05-21T10:17:37.156Z,11.00
2019-05-21T10:20:04.435Z,11.00
2019-05-21T10:22:30.579Z,11.00
2019-05-21T10:24:56.681Z,11.10
2019-05-21T10:27:22.847Z,11.20
2019-05-21T10:29:48.911Z,11.30
2019-05-21T10:32:14.998Z,11.50
2019-05-21T10:34:41.080Z,11.50
2019-05-21T10:37:07.278Z,11.50
2019-05-21T10:39:33.509Z,11.40
2019-05-21T10:41:59.549Z,11.40
2019-05-21T10:44:25.600Z,11.40
2019-05-21T10:46:51.664Z,11.20
2019-05-21T10:49:17.759Z,11.20
2019-05-21T10:51:43.823Z,11.20
2019-05-21T10:54:10.099Z,11.30
2019-05-21T10:56:47.477Z,11.40
2019-05-21T10:59:04.156Z,11.50
2019-05-21T11:01:32.132Z,11.50
2019-05-21T11:04:11.984Z,11.40
2019-05-21T11:06:39.059Z,11.30
2019-05-21T11:09:07.852Z,11.20
2019-05-21T11:11:34.116Z,11.10
2019-05-21T11:14:00.228Z,11.10
2019-05-21T11:16:26.382Z,11.10
2019-05-21T11:18:52.688Z,11.00
2019-05-21T11:21:18.804Z,11.00
2019-05-21T11:23:44.923Z,10.90
2019-05-21T11:26:11.355Z,11.10
2019-05-21T11:28:37.448Z,11.10
2019-05-21T11:31:03.646Z,11.10
2019-05-21T11:33:29.794Z,11.20
2019-05-21T11:35:55.879Z,11.20
2019-05-21T11:38:21.950Z,11.20
2019-05-21T11:40:50.937Z,11.40
2019-05-21T11:43:16.123Z,11.30
2019-05-21T11:45:42.191Z,11.40
2019-05-21T11:48:08.267Z,11.50
2019-05-21T11:50:34.571Z,11.50
2019-05-21T11:53:00.728Z,11.40
2019-05-21T11:55:26.818Z,11.40
2019-05-21T11:57:52.983Z,11.60
2019-05-21T12:00:22.122Z,11.50
2019-05-21T12:02:48.239Z,11.70
2019-05-21T12:05:14.541Z,11.80
2019-05-21T12:07:40.712Z,11.80
2019-05-21T12:10:07.164Z,11.60
2019-05-21T12:12:33.235Z,11.70
2019-05-21T12:14:59.343Z,11.60
2019-05-21T12:17:25.521Z,11.70
2019-05-21T12:19:51.820Z,11.80
2019-05-21T12:22:17.880Z,11.80
2019-05-21T12:24:43.978Z,11.80
2019-05-21T12:27:10.038Z,11.70
2019-05-21T12:29:36.128Z,11.70
2019-05-21T12:32:02.198Z,11.80
2019-05-21T12:34:28.290Z,11.70
2019-05-21T12:36:54.368Z,11.70
2019-05-21T12:39:20.539Z,11.60
2019-05-21T12:41:46.598Z,11.40
2019-05-21T12:44:12.715Z,11.30
2019-05-21T12:46:39.554Z,11.40
2019-05-21T12:49:05.648Z,11.30
2019-05-21T12:51:31.740Z,11.20
2019-05-21T12:53:57.904Z,11.20
2019-05-21T12:56:23.979Z,11.20
2019-05-21T12:58:50.037Z,11.10
2019-05-21T13:01:16.121Z,11.10
2019-05-21T13:03:42.188Z,11.00
2019-05-21T13:06:08.287Z,11.10
2019-05-21T13:08:34.458Z,11.10
2019-05-21T13:11:00.528Z,11.00
2019-05-21T13:13:26.599Z,11.00
2019-05-21T13:15:52.679Z,11.00
2019-05-21T13:18:18.973Z,11.00
2019-05-21T13:20:45.144Z,11.10
2019-05-21T13:23:11.631Z,11.10
2019-05-21T13:25:37.899Z,11.00
2019-05-21T13:28:04.262Z,11.00
2019-05-21T13:30:30.338Z,11.10
2019-05-21T13:32:56.402Z,10.90
2019-05-21T13:35:22.540Z,10.90
2019-05-21T13:37:49.308Z,10.90
2019-05-21T13:40:16.302Z,10.90
2019-05-21T13:42:42.359Z,10.90
2019-05-21T13:45:09.340Z,10.90
2019-05-21T13:47:35.516Z,10.90
2019-05-21T13:50:06.451Z,10.90
2019-05-21T13:52:32.534Z,10.90
2019-05-21T13:54:58.595Z,10.90
2019-05-21T13:57:24.722Z,11.00
2019-05-21T13:59:51.064Z,11.00
2019-05-21T14:02:18.153Z,11.00
2019-05-21T14:04:44.439Z,10.80
2019-05-21T14:07:10.616Z,10.80
2019-05-21T14:09:36.787Z,10.70
2019-05-21T14:12:03.871Z,10.70
2019-05-21T14:14:29.960Z,10.60
2019-05-21T14:16:56.060Z,10.70
2019-05-21T14:19:22.127Z,10.70
2019-05-21T14:21:48.227Z,10.60
2019-05-21T14:24:14.285Z,10.60
2019-05-21T14:26:40.397Z,10.70
2019-05-21T14:29:06.483Z,10.60
2019-05-21T14:31:32.541Z,10.70
2019-05-21T14:33:58.611Z,10.60
2019-05-21T14:36:24.698Z,10.60
2019-05-21T14:38:50.861Z,10.50
2019-05-21T14:41:17.054Z,10.60
2019-05-21T14:43:43.233Z,10.60
2019-05-21T14:46:09.307Z,10.60
2019-05-21T14:48:35.548Z,10.50
2019-05-21T14:51:01.700Z,10.60
2019-05-21T14:53:27.796Z,10.70
2019-05-21T14:55:53.851Z,10.60
2019-05-21T14:58:19.932Z,10.50
2019-05-21T15:00:46.024Z,10.60
2019-05-21T15:03:24.274Z,10.60
2019-05-21T15:05:40.069Z,10.50
2019-05-21T15:08:06.259Z,10.60
2019-05-21T15:10:47.231Z,10.60
2019-05-21T15:13:05.290Z,10.60
2019-05-21T15:15:28.634Z,10.60
2019-05-21T15:17:54.724Z,10.60
2019-05-21T15:20:36.277Z,10.60
2019-05-21T15:23:02.639Z,10.60
2019-05-21T15:25:28.742Z,10.60
2019-05-21T15:27:54.840Z,10.50
2019-05-21T15:30:21.022Z,10.50
2019-05-21T15:32:47.206Z,10.50
2019-05-21T15:35:13.377Z,10.50
2019-05-21T15:37:39.560Z,10.40
2019-05-21T15:40:06.130Z,10.30
2019-05-21T15:42:32.416Z,10.40
2019-05-21T15:44:58.583Z,10.40
2019-05-21T15:47:24.659Z,10.30
2019-05-21T15:49:50.724Z,10.30
2019-05-21T15:52:16.818Z,10.40
2019-05-21T15:54:42.985Z,10.40
2019-05-21T15:57:10.586Z,10.40
2019-05-21T15:59:37.035Z,10.40
2019-05-21T16:02:03.622Z,10.40
2019-05-21T16:04:29.687Z,10.40
2019-05-21T16:06:55.775Z,10.40
2019-05-21T16:09:21.834Z,10.40
2019-05-21T16:11:47.899Z,10.40
2019-05-21T16:14:13.975Z,10.40
2019-05-21T16:16:40.100Z,10.40
2019-05-21T16:19:06.284Z,10.40
2019-05-21T16:21:32.347Z,10.50
2019-05-21T16:23:58.436Z,10.50
2019-05-21T16:26:24.517Z,10.40
2019-05-21T16:28:50.604Z,10.40
2019-05-21T16:31:16.665Z,10.40
2019-05-21T16:33:42.809Z,10.40
2019-05-21T16:36:08.947Z,10.40
2019-05-21T16:38:35.324Z,10.40
2019-05-21T16:41:01.410Z,10.40
2019-05-21T16:43:27.495Z,10.40
2019-05-21T16:45:53.664Z,10.50
2019-05-21T16:48:19.739Z,10.50
2019-05-21T16:50:45.827Z,10.50
2019-05-21T16:53:12.042Z,10.60
2019-05-21T16:55:38.109Z,10.40
2019-05-21T16:58:04.204Z,10.40
2019-05-21T17:00:31.113Z,10.30
2019-05-21T17:02:57.241Z,10.30
2019-05-21T17:05:23.323Z,10.40
2019-05-21T17:07:49.388Z,10.40
2019-05-21T17:10:17.383Z,10.50
2019-05-21T17:12:43.471Z,10.50
2019-05-21T17:15:10.855Z,10.40
2019-05-21T17:17:36.938Z,10.50
2019-05-21T17:20:07.128Z,10.60
2019-05-21T17:22:33.386Z,10.60
2019-05-21T17:24:59.651Z,10.60
2019-05-21T17:27:25.716Z,10.50
2019-05-21T17:29:51.840Z,10.40
2019-05-21T17:32:17.920Z,10.50
2019-05-21T17:34:44.000Z,10.50
2019-05-21T17:37:10.069Z,10.40
2019-05-21T17:39:36.356Z,10.50
2019-05-21T17:42:14.730Z,10.50
2019-05-21T17:44:30.817Z,10.50
2019-05-21T17:46:56.982Z,10.50
2019-05-21T17:49:23.066Z,10.50
2019-05-21T17:51:49.244Z,10.50
2019-05-21T17:54:15.319Z,10.50
2019-05-21T17:56:41.406Z,10.50
2019-05-21T17:59:07.488Z,10.60
2019-05-21T18:01:33.578Z,10.50
2019-05-21T18:04:00.264Z,10.50
2019-05-21T18:06:26.547Z,10.60
2019-05-21T18:08:53.342Z,10.60
2019-05-21T18:11:19.485Z,10.60
2019-05-21T18:13:48.079Z,10.50
2019-05-21T18:16:14.847Z,10.50
2019-05-21T18:18:41.148Z,10.50
2019-05-21T18:21:07.652Z,10.50
2019-05-21T18:23:34.023Z,10.60
2019-05-21T18:26:00.235Z,10.50
2019-05-21T18:28:26.334Z,10.50
2019-05-21T18:30:52.434Z,10.60
2019-05-21T18:33:18.931Z,10.50
2019-05-21T18:35:45.520Z,10.50
2019-05-21T18:38:12.016Z,10.60
2019-05-21T18:40:38.640Z,10.60
2019-05-21T18:43:04.912Z,10.80
2019-05-21T18:45:30.984Z,10.50
2019-05-21T18:47:57.176Z,10.60
2019-05-21T18:50:35.578Z,10.50
2019-05-21T18:52:51.249Z,10.60
2019-05-21T18:55:17.336Z,10.50
2019-05-21T18:57:43.526Z,10.50
2019-05-21T19:00:10.510Z,10.60
2019-05-21T19:02:36.702Z,10.60
2019-05-21T19:05:05.276Z,10.50
2019-05-21T19:07:31.446Z,10.60
2019-05-21T19:10:00.910Z,10.70
2019-05-21T19:12:37.247Z,10.60
2019-05-21T19:14:54.023Z,10.60
2019-05-21T19:17:33.265Z,10.60
2019-05-21T19:19:48.385Z,10.50
2019-05-21T19:22:14.463Z,10.50
2019-05-21T19:24:40.555Z,10.60
2019-05-21T19:27:06.836Z,10.60
2019-05-21T19:29:32.911Z,10.60
2019-05-21T19:31:59.013Z,10.50
2019-05-21T19:34:25.094Z,10.50
2019-05-21T19:36:51.151Z,10.50
2019-05-21T19:39:17.635Z,10.50
2019-05-21T19:41:43.800Z,10.60
2019-05-21T19:44:09.892Z,10.60
2019-05-21T19:46:35.959Z,10.50
2019-05-21T19:49:01.996Z,10.50
2019-05-21T19:51:28.280Z,10.50
2019-05-21T19:53:54.595Z,10.50
2019-05-21T19:56:20.939Z,10.50
2019-05-21T19:58:47.023Z,10.60
2019-05-21T20:01:13.222Z,10.50
2019-05-21T20:03:39.480Z,10.50
2019-05-21T20:06:08.152Z,10.40
2019-05-21T20:08:34.227Z,10.40
2019-05-21T20:11:00.316Z,10.40
2019-05-21T20:13:32.710Z,10.50
2019-05-21T20:15:54.890Z,10.50
2019-05-21T20:18:22.480Z,10.50
2019-05-21T20:20:49.163Z,10.50
2019-05-21T20:23:17.227Z,10.50
2019-05-21T20:25:56.149Z,10.40
2019-05-21T20:28:11.403Z,10.40
2019-05-21T20:30:37.473Z,10.40
2019-05-21T20:33:04.027Z,10.40
2019-05-21T20:35:30.602Z,10.50
2019-05-21T20:37:57.065Z,10.50
2019-05-21T20:40:23.764Z,10.40
2019-05-21T20:42:51.625Z,10.40
2019-05-21T20:45:18.649Z,10.50
2019-05-21T20:47:45.350Z,10.50
2019-05-21T20:50:14.619Z,10.40
2019-05-21T20:52:41.792Z,10.50
2019-05-21T20:55:08.777Z,10.50
2019-05-21T20:57:34.851Z,10.50
2019-05-21T21:00:00.936Z,10.50
2019-05-21T21:02:27.795Z,10.50
2019-05-21T21:04:54.099Z,10.50
2019-05-21T21:07:20.277Z,10.50
2019-05-21T21:09:46.459Z,10.50
2019-05-21T21:12:14.431Z,10.50
2019-05-21T21:14:40.724Z,10.60
2019-05-21T21:17:07.251Z,10.50
2019-05-21T21:19:33.439Z,10.50
2019-05-21T21:21:59.634Z,10.50
2019-05-21T21:24:26.004Z,10.60
2019-05-21T21:26:52.780Z,10.60
2019-05-21T21:29:18.968Z,10.60
2019-05-21T21:31:45.148Z,10.60
2019-05-21T21:34:12.011Z,10.60
2019-05-21T21:36:38.506Z,10.40
2019-05-21T21:39:05.879Z,10.50
2019-05-21T21:41:33.272Z,10.50
2019-05-21T21:43:59.940Z,10.50
2019-05-21T21:46:26.028Z,10.50
2019-05-21T21:48:52.297Z,10.50
2019-05-21T21:51:18.780Z,10.50
2019-05-21T21:53:45.056Z,10.50
2019-05-21T21:56:11.554Z,10.50
2019-05-21T21:58:37.698Z,10.50
2019-05-21T22:01:27.546Z,10.50
2019-05-21T22:03:56.908Z,10.50
2019-05-21T22:06:24.173Z,10.50
2019-05-21T22:08:50.988Z,10.40
2019-05-21T22:11:17.674Z,10.40
2019-05-21T22:13:44.941Z,10.30
2019-05-21T22:16:11.636Z,10.30
2019-05-21T22:18:37.924Z,10.30
2019-05-21T22:21:04.112Z,10.40
2019-05-21T22:23:30.708Z,10.40
2019-05-21T22:25:56.767Z,10.50
2019-05-21T22:28:23.344Z,10.40
2019-05-21T22:30:49.630Z,10.30
2019-05-21T22:33:16.503Z,10.40
2019-05-21T22:35:42.700Z,10.50
2019-05-21T22:38:09.176Z,11.40
2019-05-21T22:40:35.262Z,10.50
2019-05-21T22:43:01.642Z,10.40
2019-05-21T22:45:28.206Z,10.40
2019-05-21T22:47:54.285Z,10.50
2019-05-21T22:50:20.771Z,10.40
2019-05-21T22:52:46.853Z,10.40
2019-05-21T22:55:13.043Z,10.40
2019-05-21T22:57:39.234Z,10.40
2019-05-21T23:00:06.236Z,10.30
2019-05-21T23:02:34.667Z,10.40
2019-05-21T23:05:01.121Z,10.40
2019-05-21T23:07:27.344Z,10.50
2019-05-21T23:09:54.828Z,10.60
2019-05-21T23:12:20.912Z,10.60
2019-05-21T23:14:47.487Z,10.60
2019-05-21T23:17:13.591Z,10.60
2019-05-21T23:19:41.989Z,10.60
2019-05-21T23:22:09.104Z,10.60
2019-05-21T23:24:36.268Z,10.50
2019-05-21T23:27:04.267Z,10.50
2019-05-21T23:29:30.759Z,10.40
2019-05-21T23:31:56.874Z,10.40
2019-05-21T23:34:23.041Z,10.40
2019-05-21T23:36:51.032Z,10.40
2019-05-21T23:39:18.498Z,10.40
2019-05-21T23:41:45.081Z,10.40
2019-05-21T23:44:11.683Z,10.40
2019-05-21T23:46:37.860Z,10.40
2019-05-21T23:49:04.134Z,10.40
2019-05-21T23:51:30.301Z,10.40
2019-05-21T23:53:57.485Z,10.40
2019-05-21T23:56:24.049Z,10.40
2019-05-21T23:58:50.452Z,10.40
